sensor_id;sensor_type;location;lat;lon;timestamp;temperature;humidity
5264;DHT22;2654;47.958;13.614;2022-08-19T00:01:57;22.20;1.00
5264;DHT22;2654;47.958;13.614;2022-08-19T00:04:27;22.20;1.00
5264;DHT22;2654;47.958;13.614;2022-08-19T00:06:55;22.10;1.00
5264;DHT22;2654;47.958;13.614;2022-08-19T00:09:23;22.00;1.00
5264;DHT22;2654;47.958;13.614;2022-08-19T00:11:52;22.00;1.00
5264;DHT22;2654;47.958;13.614;2022-08-19T00:14:23;21.90;1.00
5264;DHT22;2654;47.958;13.614;2022-08-19T00:16:52;21.90;1.00
5264;DHT22;2654;47.958;13.614;2022-08-19T00:19:21;21.90;1.00
5264;DHT22;2654;47.958;13.614;2022-08-19T00:21:48;21.90;1.00
5264;DHT22;2654;47.958;13.614;2022-08-19T00:24:16;21.90;1.00
5264;DHT22;2654;47.958;13.614;2022-08-19T00:26:44;21.90;1.00
5264;DHT22;2654;47.958;13.614;2022-08-19T00:29:14;21.90;1.00
5264;DHT22;2654;47.958;13.614;2022-08-19T00:31:44;21.90;1.00
5264;DHT22;2654;47.958;13.614;2022-08-19T00:34:12;21.90;1.00
5264;DHT22;2654;47.958;13.614;2022-08-19T00:36:40;21.90;1.00
5264;DHT22;2654;47.958;13.614;2022-08-19T00:39:09;21.90;1.00
5264;DHT22;2654;47.958;13.614;2022-08-19T00:41:37;21.90;99.90
5264;DHT22;2654;47.958;13.614;2022-08-19T00:44:10;22.00;99.90
5264;DHT22;2654;47.958;13.614;2022-08-19T00:46:40;22.10;99.90
5264;DHT22;2654;47.958;13.614;2022-08-19T00:49:13;22.10;99.90
5264;DHT22;2654;47.958;13.614;2022-08-19T00:51:43;22.10;99.90
5264;DHT22;2654;47.958;13.614;2022-08-19T00:54:12;22.10;99.90
5264;DHT22;2654;47.958;13.614;2022-08-19T00:56:40;22.00;99.90
5264;DHT22;2654;47.958;13.614;2022-08-19T00:59:09;22.00;99.90
5264;DHT22;2654;47.958;13.614;2022-08-19T01:01:37;21.90;4.50
5264;DHT22;2654;47.958;13.614;2022-08-19T01:04:05;21.90;99.90
5264;DHT22;2654;47.958;13.614;2022-08-19T01:06:36;21.80;99.90
5264;DHT22;2654;47.958;13.614;2022-08-19T01:09:04;21.80;7.90
5264;DHT22;2654;47.958;13.614;2022-08-19T01:11:34;21.80;1.00
5264;DHT22;2654;47.958;13.614;2022-08-19T01:14:03;21.90;1.00
5264;DHT22;2654;47.958;13.614;2022-08-19T01:16:32;21.90;1.00
5264;DHT22;2654;47.958;13.614;2022-08-19T01:19:01;21.50;99.90
5264;DHT22;2654;47.958;13.614;2022-08-19T01:21:32;21.40;99.90
5264;DHT22;2654;47.958;13.614;2022-08-19T01:24:03;21.50;1.00
5264;DHT22;2654;47.958;13.614;2022-08-19T01:26:31;21.50;1.00
5264;DHT22;2654;47.958;13.614;2022-08-19T01:29:07;21.60;1.00
5264;DHT22;2654;47.958;13.614;2022-08-19T01:31:35;21.50;99.90
5264;DHT22;2654;47.958;13.614;2022-08-19T01:34:03;21.30;12.90
5264;DHT22;2654;47.958;13.614;2022-08-19T01:36:34;21.30;19.40
5264;DHT22;2654;47.958;13.614;2022-08-19T01:39:07;21.00;1.00
5264;DHT22;2654;47.958;13.614;2022-08-19T01:41:35;21.00;1.00
5264;DHT22;2654;47.958;13.614;2022-08-19T01:44:04;21.20;1.00
5264;DHT22;2654;47.958;13.614;2022-08-19T01:46:32;21.30;99.90
5264;DHT22;2654;47.958;13.614;2022-08-19T01:48:59;21.40;99.90
5264;DHT22;2654;47.958;13.614;2022-08-19T01:51:27;21.10;1.00
5264;DHT22;2654;47.958;13.614;2022-08-19T01:53:54;21.10;1.00
5264;DHT22;2654;47.958;13.614;2022-08-19T01:56:23;21.00;23.20
5264;DHT22;2654;47.958;13.614;2022-08-19T01:58:55;20.80;99.90
5264;DHT22;2654;47.958;13.614;2022-08-19T02:01:22;21.00;99.90
5264;DHT22;2654;47.958;13.614;2022-08-19T02:03:50;21.10;99.90
5264;DHT22;2654;47.958;13.614;2022-08-19T02:06:20;21.30;99.90
5264;DHT22;2654;47.958;13.614;2022-08-19T02:08:47;21.30;99.90
5264;DHT22;2654;47.958;13.614;2022-08-19T02:11:20;21.40;99.90
5264;DHT22;2654;47.958;13.614;2022-08-19T02:13:49;21.30;99.90
5264;DHT22;2654;47.958;13.614;2022-08-19T02:16:17;21.30;99.90
5264;DHT22;2654;47.958;13.614;2022-08-19T02:18:46;21.20;99.90
5264;DHT22;2654;47.958;13.614;2022-08-19T02:21:14;21.20;99.90
5264;DHT22;2654;47.958;13.614;2022-08-19T02:23:42;21.30;99.90
5264;DHT22;2654;47.958;13.614;2022-08-19T02:26:10;21.30;99.90
5264;DHT22;2654;47.958;13.614;2022-08-19T02:28:38;21.30;99.90
5264;DHT22;2654;47.958;13.614;2022-08-19T02:31:10;21.30;99.90
5264;DHT22;2654;47.958;13.614;2022-08-19T02:33:38;21.30;99.90
5264;DHT22;2654;47.958;13.614;2022-08-19T02:36:07;21.30;99.90
5264;DHT22;2654;47.958;13.614;2022-08-19T02:38:35;21.30;99.90
5264;DHT22;2654;47.958;13.614;2022-08-19T02:41:16;21.40;99.90
5264;DHT22;2654;47.958;13.614;2022-08-19T02:43:44;21.30;99.90
5264;DHT22;2654;47.958;13.614;2022-08-19T02:46:14;21.40;99.90
5264;DHT22;2654;47.958;13.614;2022-08-19T02:48:47;21.40;99.90
5264;DHT22;2654;47.958;13.614;2022-08-19T02:51:19;21.40;99.90
5264;DHT22;2654;47.958;13.614;2022-08-19T02:53:46;21.40;99.90
5264;DHT22;2654;47.958;13.614;2022-08-19T02:56:14;21.40;99.90
5264;DHT22;2654;47.958;13.614;2022-08-19T02:58:42;21.40;99.90
5264;DHT22;2654;47.958;13.614;2022-08-19T03:01:11;21.40;99.90
5264;DHT22;2654;47.958;13.614;2022-08-19T03:03:39;21.30;99.90
5264;DHT22;2654;47.958;13.614;2022-08-19T03:06:09;21.20;99.90
5264;DHT22;2654;47.958;13.614;2022-08-19T03:08:39;21.20;99.90
5264;DHT22;2654;47.958;13.614;2022-08-19T03:11:13;21.20;99.90
5264;DHT22;2654;47.958;13.614;2022-08-19T03:13:40;21.20;99.90
5264;DHT22;2654;47.958;13.614;2022-08-19T03:16:09;21.20;99.90
5264;DHT22;2654;47.958;13.614;2022-08-19T03:18:38;21.30;99.90
5264;DHT22;2654;47.958;13.614;2022-08-19T03:21:06;21.40;99.90
5264;DHT22;2654;47.958;13.614;2022-08-19T03:23:34;21.40;99.90
5264;DHT22;2654;47.958;13.614;2022-08-19T03:26:04;21.50;99.90
5264;DHT22;2654;47.958;13.614;2022-08-19T03:28:32;21.40;99.90
5264;DHT22;2654;47.958;13.614;2022-08-19T03:31:01;21.50;99.90
5264;DHT22;2654;47.958;13.614;2022-08-19T03:33:30;21.50;99.90
5264;DHT22;2654;47.958;13.614;2022-08-19T03:36:06;21.40;99.90
5264;DHT22;2654;47.958;13.614;2022-08-19T03:38:35;21.30;99.90
5264;DHT22;2654;47.958;13.614;2022-08-19T03:41:04;21.20;99.90
5264;DHT22;2654;47.958;13.614;2022-08-19T03:43:34;21.20;99.90
5264;DHT22;2654;47.958;13.614;2022-08-19T03:46:03;21.30;99.90
5264;DHT22;2654;47.958;13.614;2022-08-19T03:48:33;21.30;99.90
5264;DHT22;2654;47.958;13.614;2022-08-19T03:51:01;21.30;99.90
5264;DHT22;2654;47.958;13.614;2022-08-19T03:53:31;21.20;99.90
5264;DHT22;2654;47.958;13.614;2022-08-19T03:55:59;21.20;99.90
5264;DHT22;2654;47.958;13.614;2022-08-19T03:58:28;21.10;99.90
5264;DHT22;2654;47.958;13.614;2022-08-19T04:00:56;21.10;99.90
5264;DHT22;2654;47.958;13.614;2022-08-19T04:03:24;21.10;99.90
5264;DHT22;2654;47.958;13.614;2022-08-19T04:05:52;21.10;99.90
5264;DHT22;2654;47.958;13.614;2022-08-19T04:08:20;21.10;99.90
5264;DHT22;2654;47.958;13.614;2022-08-19T04:10:49;21.20;99.90
5264;DHT22;2654;47.958;13.614;2022-08-19T04:13:18;21.20;99.90
5264;DHT22;2654;47.958;13.614;2022-08-19T04:15:45;21.20;99.90
5264;DHT22;2654;47.958;13.614;2022-08-19T04:18:13;21.30;99.90
5264;DHT22;2654;47.958;13.614;2022-08-19T04:20:43;21.30;99.90
5264;DHT22;2654;47.958;13.614;2022-08-19T04:23:11;21.30;99.90
5264;DHT22;2654;47.958;13.614;2022-08-19T04:25:40;21.40;99.90
5264;DHT22;2654;47.958;13.614;2022-08-19T04:28:12;21.50;99.90
5264;DHT22;2654;47.958;13.614;2022-08-19T04:30:41;21.50;99.90
5264;DHT22;2654;47.958;13.614;2022-08-19T04:33:09;21.60;99.90
5264;DHT22;2654;47.958;13.614;2022-08-19T04:35:38;21.50;99.90
5264;DHT22;2654;47.958;13.614;2022-08-19T04:38:06;21.50;99.90
5264;DHT22;2654;47.958;13.614;2022-08-19T04:40:34;21.40;99.90
5264;DHT22;2654;47.958;13.614;2022-08-19T04:43:25;21.50;99.90
5264;DHT22;2654;47.958;13.614;2022-08-19T04:45:53;21.50;99.90
5264;DHT22;2654;47.958;13.614;2022-08-19T04:48:20;21.30;99.90
5264;DHT22;2654;47.958;13.614;2022-08-19T04:50:52;21.00;99.90
5264;DHT22;2654;47.958;13.614;2022-08-19T04:53:23;20.70;99.90
5264;DHT22;2654;47.958;13.614;2022-08-19T04:55:54;20.50;99.90
5264;DHT22;2654;47.958;13.614;2022-08-19T04:58:22;20.30;99.90
5264;DHT22;2654;47.958;13.614;2022-08-19T05:00:51;20.20;99.90
5264;DHT22;2654;47.958;13.614;2022-08-19T05:03:19;20.20;99.90
5264;DHT22;2654;47.958;13.614;2022-08-19T05:05:48;20.20;99.90
5264;DHT22;2654;47.958;13.614;2022-08-19T05:08:18;20.30;99.90
5264;DHT22;2654;47.958;13.614;2022-08-19T05:10:47;20.50;99.90
5264;DHT22;2654;47.958;13.614;2022-08-19T05:13:16;20.50;99.90
5264;DHT22;2654;47.958;13.614;2022-08-19T05:15:53;20.60;99.90
5264;DHT22;2654;47.958;13.614;2022-08-19T05:18:22;20.70;99.90
5264;DHT22;2654;47.958;13.614;2022-08-19T05:21:08;20.70;99.90
5264;DHT22;2654;47.958;13.614;2022-08-19T05:23:52;20.70;99.90
5264;DHT22;2654;47.958;13.614;2022-08-19T05:26:20;20.50;99.90
5264;DHT22;2654;47.958;13.614;2022-08-19T05:28:47;20.40;99.90
5264;DHT22;2654;47.958;13.614;2022-08-19T05:31:15;20.40;99.90
5264;DHT22;2654;47.958;13.614;2022-08-19T05:33:44;20.60;99.90
5264;DHT22;2654;47.958;13.614;2022-08-19T05:36:11;20.80;99.90
5264;DHT22;2654;47.958;13.614;2022-08-19T05:38:39;20.80;99.90
5264;DHT22;2654;47.958;13.614;2022-08-19T05:41:08;20.50;99.90
5264;DHT22;2654;47.958;13.614;2022-08-19T05:43:35;20.50;99.90
5264;DHT22;2654;47.958;13.614;2022-08-19T05:46:04;20.50;99.90
5264;DHT22;2654;47.958;13.614;2022-08-19T05:48:31;20.60;99.90
5264;DHT22;2654;47.958;13.614;2022-08-19T05:51:04;20.60;99.90
5264;DHT22;2654;47.958;13.614;2022-08-19T05:53:32;20.70;99.90
5264;DHT22;2654;47.958;13.614;2022-08-19T05:56:04;20.60;99.90
5264;DHT22;2654;47.958;13.614;2022-08-19T05:58:31;20.70;99.90
5264;DHT22;2654;47.958;13.614;2022-08-19T06:00:59;20.80;99.90
5264;DHT22;2654;47.958;13.614;2022-08-19T06:03:30;21.00;99.90
5264;DHT22;2654;47.958;13.614;2022-08-19T06:05:59;21.20;99.90
5264;DHT22;2654;47.958;13.614;2022-08-19T06:08:28;21.30;99.90
5264;DHT22;2654;47.958;13.614;2022-08-19T06:10:56;21.10;99.90
5264;DHT22;2654;47.958;13.614;2022-08-19T06:13:23;20.90;99.90
5264;DHT22;2654;47.958;13.614;2022-08-19T06:15:51;20.50;99.90
5264;DHT22;2654;47.958;13.614;2022-08-19T06:18:18;20.50;99.90
5264;DHT22;2654;47.958;13.614;2022-08-19T06:20:46;20.80;99.90
5264;DHT22;2654;47.958;13.614;2022-08-19T06:23:16;21.00;99.90
5264;DHT22;2654;47.958;13.614;2022-08-19T06:25:44;21.00;99.90
5264;DHT22;2654;47.958;13.614;2022-08-19T06:28:11;21.10;99.90
5264;DHT22;2654;47.958;13.614;2022-08-19T06:30:39;21.20;99.90
5264;DHT22;2654;47.958;13.614;2022-08-19T06:33:07;21.40;99.90
5264;DHT22;2654;47.958;13.614;2022-08-19T06:35:39;21.50;99.90
5264;DHT22;2654;47.958;13.614;2022-08-19T06:38:06;21.50;99.90
5264;DHT22;2654;47.958;13.614;2022-08-19T06:40:36;21.40;99.90
5264;DHT22;2654;47.958;13.614;2022-08-19T06:43:04;21.50;99.90
5264;DHT22;2654;47.958;13.614;2022-08-19T06:45:31;21.60;99.90
5264;DHT22;2654;47.958;13.614;2022-08-19T06:47:58;21.70;99.90
5264;DHT22;2654;47.958;13.614;2022-08-19T06:50:26;21.70;99.90
5264;DHT22;2654;47.958;13.614;2022-08-19T06:52:53;21.70;99.90
5264;DHT22;2654;47.958;13.614;2022-08-19T06:55:20;21.60;99.90
5264;DHT22;2654;47.958;13.614;2022-08-19T06:57:49;21.70;99.90
5264;DHT22;2654;47.958;13.614;2022-08-19T07:00:19;21.70;99.90
5264;DHT22;2654;47.958;13.614;2022-08-19T07:02:46;21.60;99.90
5264;DHT22;2654;47.958;13.614;2022-08-19T07:05:15;21.60;99.90
5264;DHT22;2654;47.958;13.614;2022-08-19T07:07:43;21.70;99.90
5264;DHT22;2654;47.958;13.614;2022-08-19T07:10:10;21.70;99.90
5264;DHT22;2654;47.958;13.614;2022-08-19T07:12:37;21.60;99.90
5264;DHT22;2654;47.958;13.614;2022-08-19T07:15:09;21.40;99.90
5264;DHT22;2654;47.958;13.614;2022-08-19T07:17:37;21.30;99.90
5264;DHT22;2654;47.958;13.614;2022-08-19T07:20:06;21.30;99.90
5264;DHT22;2654;47.958;13.614;2022-08-19T07:22:34;21.30;99.90
5264;DHT22;2654;47.958;13.614;2022-08-19T07:25:02;21.40;99.90
5264;DHT22;2654;47.958;13.614;2022-08-19T07:27:29;21.40;99.90
5264;DHT22;2654;47.958;13.614;2022-08-19T07:29:57;21.40;99.90
5264;DHT22;2654;47.958;13.614;2022-08-19T07:32:26;21.40;99.90
5264;DHT22;2654;47.958;13.614;2022-08-19T07:34:53;21.50;99.90
5264;DHT22;2654;47.958;13.614;2022-08-19T07:37:21;21.40;99.90
5264;DHT22;2654;47.958;13.614;2022-08-19T07:39:48;21.40;99.90
5264;DHT22;2654;47.958;13.614;2022-08-19T07:42:16;21.20;99.90
5264;DHT22;2654;47.958;13.614;2022-08-19T07:44:43;21.30;99.90
5264;DHT22;2654;47.958;13.614;2022-08-19T07:47:11;21.30;99.90
5264;DHT22;2654;47.958;13.614;2022-08-19T07:49:42;21.50;99.90
5264;DHT22;2654;47.958;13.614;2022-08-19T07:52:10;21.50;99.90
5264;DHT22;2654;47.958;13.614;2022-08-19T07:54:39;21.70;99.90
5264;DHT22;2654;47.958;13.614;2022-08-19T07:57:08;21.60;99.90
5264;DHT22;2654;47.958;13.614;2022-08-19T07:59:35;21.60;99.90
5264;DHT22;2654;47.958;13.614;2022-08-19T08:02:03;21.50;99.90
5264;DHT22;2654;47.958;13.614;2022-08-19T08:04:31;21.40;99.90
5264;DHT22;2654;47.958;13.614;2022-08-19T08:07:18;21.50;99.90
5264;DHT22;2654;47.958;13.614;2022-08-19T08:10:04;21.50;99.90
5264;DHT22;2654;47.958;13.614;2022-08-19T08:12:34;21.60;99.90
5264;DHT22;2654;47.958;13.614;2022-08-19T08:15:06;21.70;99.90
5264;DHT22;2654;47.958;13.614;2022-08-19T08:17:34;21.70;99.90
5264;DHT22;2654;47.958;13.614;2022-08-19T08:20:03;21.70;99.90
5264;DHT22;2654;47.958;13.614;2022-08-19T08:22:33;21.70;99.90
5264;DHT22;2654;47.958;13.614;2022-08-19T08:25:33;22.00;99.90
5264;DHT22;2654;47.958;13.614;2022-08-19T08:28:03;22.20;99.90
5264;DHT22;2654;47.958;13.614;2022-08-19T08:30:31;21.70;99.90
5264;DHT22;2654;47.958;13.614;2022-08-19T08:33:01;21.90;99.90
5264;DHT22;2654;47.958;13.614;2022-08-19T08:35:28;22.00;99.90
5264;DHT22;2654;47.958;13.614;2022-08-19T08:37:58;22.10;99.90
5264;DHT22;2654;47.958;13.614;2022-08-19T08:40:29;22.20;99.90
5264;DHT22;2654;47.958;13.614;2022-08-19T08:43:06;22.10;99.90
5264;DHT22;2654;47.958;13.614;2022-08-19T08:45:36;22.00;99.90
5264;DHT22;2654;47.958;13.614;2022-08-19T08:48:13;22.10;99.90
5264;DHT22;2654;47.958;13.614;2022-08-19T08:50:43;22.20;99.90
5264;DHT22;2654;47.958;13.614;2022-08-19T08:53:19;22.20;99.90
5264;DHT22;2654;47.958;13.614;2022-08-19T08:55:47;21.90;99.90
5264;DHT22;2654;47.958;13.614;2022-08-19T08:58:21;21.90;99.90
5264;DHT22;2654;47.958;13.614;2022-08-19T09:00:51;22.10;99.90
5264;DHT22;2654;47.958;13.614;2022-08-19T09:03:20;22.00;99.90
5264;DHT22;2654;47.958;13.614;2022-08-19T09:05:56;22.30;99.90
5264;DHT22;2654;47.958;13.614;2022-08-19T09:08:37;21.90;99.90
5264;DHT22;2654;47.958;13.614;2022-08-19T09:11:08;22.00;99.90
5264;DHT22;2654;47.958;13.614;2022-08-19T09:13:44;22.20;99.90
5264;DHT22;2654;47.958;13.614;2022-08-19T09:16:19;22.50;99.90
5264;DHT22;2654;47.958;13.614;2022-08-19T09:18:48;22.70;99.90
5264;DHT22;2654;47.958;13.614;2022-08-19T09:21:19;22.60;99.90
5264;DHT22;2654;47.958;13.614;2022-08-19T09:23:49;22.20;99.90
5264;DHT22;2654;47.958;13.614;2022-08-19T09:26:18;22.00;99.90
5264;DHT22;2654;47.958;13.614;2022-08-19T09:28:48;22.00;99.90
5264;DHT22;2654;47.958;13.614;2022-08-19T09:31:18;21.70;99.90
5264;DHT22;2654;47.958;13.614;2022-08-19T09:33:46;21.90;99.90
5264;DHT22;2654;47.958;13.614;2022-08-19T09:36:16;22.00;99.90
5264;DHT22;2654;47.958;13.614;2022-08-19T09:38:44;22.20;99.90
5264;DHT22;2654;47.958;13.614;2022-08-19T09:41:15;22.60;99.90
5264;DHT22;2654;47.958;13.614;2022-08-19T09:43:45;23.00;99.90
5264;DHT22;2654;47.958;13.614;2022-08-19T09:46:12;23.30;99.90
5264;DHT22;2654;47.958;13.614;2022-08-19T09:48:42;23.40;99.90
5264;DHT22;2654;47.958;13.614;2022-08-19T09:51:12;23.30;99.90
5264;DHT22;2654;47.958;13.614;2022-08-19T09:53:42;23.30;99.90
5264;DHT22;2654;47.958;13.614;2022-08-19T09:56:10;23.30;99.90
5264;DHT22;2654;47.958;13.614;2022-08-19T09:58:40;23.40;99.90
5264;DHT22;2654;47.958;13.614;2022-08-19T10:01:08;23.00;99.90
5264;DHT22;2654;47.958;13.614;2022-08-19T10:03:36;22.80;99.90
5264;DHT22;2654;47.958;13.614;2022-08-19T10:06:05;23.00;99.90
5264;DHT22;2654;47.958;13.614;2022-08-19T10:08:34;22.90;99.90
5264;DHT22;2654;47.958;13.614;2022-08-19T10:11:03;23.30;99.90
5264;DHT22;2654;47.958;13.614;2022-08-19T10:13:32;23.90;99.90
5264;DHT22;2654;47.958;13.614;2022-08-19T10:16:07;24.30;99.90
5264;DHT22;2654;47.958;13.614;2022-08-19T10:18:36;24.20;99.90
5264;DHT22;2654;47.958;13.614;2022-08-19T10:21:06;23.90;99.90
5264;DHT22;2654;47.958;13.614;2022-08-19T10:23:36;24.10;99.90
5264;DHT22;2654;47.958;13.614;2022-08-19T10:26:05;24.10;99.90
5264;DHT22;2654;47.958;13.614;2022-08-19T10:28:33;24.40;99.90
5264;DHT22;2654;47.958;13.614;2022-08-19T10:31:10;24.70;99.90
5264;DHT22;2654;47.958;13.614;2022-08-19T10:33:38;24.40;99.90
5264;DHT22;2654;47.958;13.614;2022-08-19T10:36:08;23.80;99.90
5264;DHT22;2654;47.958;13.614;2022-08-19T10:38:36;23.30;99.90
5264;DHT22;2654;47.958;13.614;2022-08-19T10:41:09;23.20;99.90
5264;DHT22;2654;47.958;13.614;2022-08-19T10:43:37;23.40;99.90
5264;DHT22;2654;47.958;13.614;2022-08-19T10:46:08;23.80;99.90
5264;DHT22;2654;47.958;13.614;2022-08-19T10:48:36;24.20;99.90
5264;DHT22;2654;47.958;13.614;2022-08-19T10:51:04;24.50;99.90
5264;DHT22;2654;47.958;13.614;2022-08-19T10:53:48;24.80;99.90
5264;DHT22;2654;47.958;13.614;2022-08-19T10:56:16;25.10;99.90
5264;DHT22;2654;47.958;13.614;2022-08-19T10:59:00;25.20;99.90
5264;DHT22;2654;47.958;13.614;2022-08-19T11:01:30;24.90;99.90
5264;DHT22;2654;47.958;13.614;2022-08-19T11:03:59;25.00;99.90
5264;DHT22;2654;47.958;13.614;2022-08-19T11:06:27;25.00;99.90
5264;DHT22;2654;47.958;13.614;2022-08-19T11:08:56;25.00;99.90
5264;DHT22;2654;47.958;13.614;2022-08-19T11:11:23;25.20;99.90
5264;DHT22;2654;47.958;13.614;2022-08-19T11:13:51;25.10;99.90
5264;DHT22;2654;47.958;13.614;2022-08-19T11:16:21;25.00;99.90
5264;DHT22;2654;47.958;13.614;2022-08-19T11:18:54;24.70;99.90
5264;DHT22;2654;47.958;13.614;2022-08-19T11:21:25;24.50;99.90
5264;DHT22;2654;47.958;13.614;2022-08-19T11:23:55;24.90;99.90
5264;DHT22;2654;47.958;13.614;2022-08-19T11:26:25;25.20;99.90
5264;DHT22;2654;47.958;13.614;2022-08-19T11:28:52;25.50;99.90
5264;DHT22;2654;47.958;13.614;2022-08-19T11:31:22;25.40;99.90
5264;DHT22;2654;47.958;13.614;2022-08-19T11:33:51;25.40;99.90
5264;DHT22;2654;47.958;13.614;2022-08-19T11:36:20;25.30;99.90
5264;DHT22;2654;47.958;13.614;2022-08-19T11:38:48;25.00;99.90
5264;DHT22;2654;47.958;13.614;2022-08-19T11:41:17;24.70;99.90
5264;DHT22;2654;47.958;13.614;2022-08-19T11:43:46;24.80;99.90
5264;DHT22;2654;47.958;13.614;2022-08-19T11:46:15;25.20;99.90
5264;DHT22;2654;47.958;13.614;2022-08-19T11:48:43;25.60;99.90
5264;DHT22;2654;47.958;13.614;2022-08-19T11:51:14;25.40;99.90
5264;DHT22;2654;47.958;13.614;2022-08-19T11:53:41;25.10;99.90
5264;DHT22;2654;47.958;13.614;2022-08-19T11:56:09;24.70;99.90
5264;DHT22;2654;47.958;13.614;2022-08-19T11:58:38;25.00;99.90
5264;DHT22;2654;47.958;13.614;2022-08-19T12:01:08;25.30;99.90
5264;DHT22;2654;47.958;13.614;2022-08-19T12:03:37;25.60;99.90
5264;DHT22;2654;47.958;13.614;2022-08-19T12:06:05;25.80;99.90
5264;DHT22;2654;47.958;13.614;2022-08-19T12:08:34;25.90;99.90
5264;DHT22;2654;47.958;13.614;2022-08-19T12:11:02;26.00;99.90
5264;DHT22;2654;47.958;13.614;2022-08-19T12:13:30;26.20;99.90
5264;DHT22;2654;47.958;13.614;2022-08-19T12:15:57;26.00;99.90
5264;DHT22;2654;47.958;13.614;2022-08-19T12:18:25;25.90;99.90
5264;DHT22;2654;47.958;13.614;2022-08-19T12:20:53;25.70;99.90
5264;DHT22;2654;47.958;13.614;2022-08-19T12:23:22;25.70;99.90
5264;DHT22;2654;47.958;13.614;2022-08-19T12:25:51;25.20;99.90
5264;DHT22;2654;47.958;13.614;2022-08-19T12:28:21;25.40;99.90
5264;DHT22;2654;47.958;13.614;2022-08-19T12:30:49;25.70;99.90
5264;DHT22;2654;47.958;13.614;2022-08-19T12:33:17;25.90;99.90
5264;DHT22;2654;47.958;13.614;2022-08-19T12:35:45;25.80;99.90
5264;DHT22;2654;47.958;13.614;2022-08-19T12:38:13;26.00;99.90
5264;DHT22;2654;47.958;13.614;2022-08-19T12:40:41;26.40;99.90
5264;DHT22;2654;47.958;13.614;2022-08-19T12:43:14;27.00;99.90
5264;DHT22;2654;47.958;13.614;2022-08-19T12:45:42;27.40;99.90
5264;DHT22;2654;47.958;13.614;2022-08-19T12:48:11;27.50;99.90
5264;DHT22;2654;47.958;13.614;2022-08-19T12:50:39;27.80;99.90
5264;DHT22;2654;47.958;13.614;2022-08-19T12:53:07;27.30;99.90
5264;DHT22;2654;47.958;13.614;2022-08-19T12:55:34;27.10;99.90
5264;DHT22;2654;47.958;13.614;2022-08-19T12:58:02;26.80;99.90
5264;DHT22;2654;47.958;13.614;2022-08-19T13:00:31;26.20;99.90
5264;DHT22;2654;47.958;13.614;2022-08-19T13:02:59;26.40;99.90
5264;DHT22;2654;47.958;13.614;2022-08-19T13:05:28;26.30;99.90
5264;DHT22;2654;47.958;13.614;2022-08-19T13:07:57;26.50;99.90
5264;DHT22;2654;47.958;13.614;2022-08-19T13:10:29;26.70;99.90
5264;DHT22;2654;47.958;13.614;2022-08-19T13:12:57;26.60;99.90
5264;DHT22;2654;47.958;13.614;2022-08-19T13:15:27;26.40;99.90
5264;DHT22;2654;47.958;13.614;2022-08-19T13:17:58;26.30;99.90
5264;DHT22;2654;47.958;13.614;2022-08-19T13:20:25;26.70;99.90
5264;DHT22;2654;47.958;13.614;2022-08-19T13:22:54;26.40;99.90
5264;DHT22;2654;47.958;13.614;2022-08-19T13:25:22;26.20;99.90
5264;DHT22;2654;47.958;13.614;2022-08-19T13:27:51;26.00;99.90
5264;DHT22;2654;47.958;13.614;2022-08-19T13:30:19;26.00;99.90
5264;DHT22;2654;47.958;13.614;2022-08-19T13:33:06;25.90;99.90
5264;DHT22;2654;47.958;13.614;2022-08-19T13:35:44;25.70;99.90
5264;DHT22;2654;47.958;13.614;2022-08-19T13:38:13;26.00;99.90
5264;DHT22;2654;47.958;13.614;2022-08-19T13:40:42;26.50;99.90
5264;DHT22;2654;47.958;13.614;2022-08-19T13:43:10;27.00;99.90
5264;DHT22;2654;47.958;13.614;2022-08-19T13:45:37;27.30;99.30
5264;DHT22;2654;47.958;13.614;2022-08-19T13:48:07;27.30;98.10
5264;DHT22;2654;47.958;13.614;2022-08-19T13:50:38;27.40;97.70
5264;DHT22;2654;47.958;13.614;2022-08-19T13:53:07;27.50;97.90
5264;DHT22;2654;47.958;13.614;2022-08-19T13:55:36;27.50;97.70
5264;DHT22;2654;47.958;13.614;2022-08-19T13:58:04;27.40;97.60
5264;DHT22;2654;47.958;13.614;2022-08-19T14:00:34;27.30;96.90
5264;DHT22;2654;47.958;13.614;2022-08-19T14:03:02;27.20;97.30
5264;DHT22;2654;47.958;13.614;2022-08-19T14:05:32;26.90;98.30
5264;DHT22;2654;47.958;13.614;2022-08-19T14:08:00;26.70;98.50
5264;DHT22;2654;47.958;13.614;2022-08-19T14:10:28;26.50;99.90
5264;DHT22;2654;47.958;13.614;2022-08-19T14:12:57;26.20;99.90
5264;DHT22;2654;47.958;13.614;2022-08-19T14:15:26;25.90;99.90
5264;DHT22;2654;47.958;13.614;2022-08-19T14:17:54;25.70;48.90
5264;DHT22;2654;47.958;13.614;2022-08-19T14:20:22;25.60;99.90
5264;DHT22;2654;47.958;13.614;2022-08-19T14:22:51;25.50;1.00
5264;DHT22;2654;47.958;13.614;2022-08-19T14:25:20;25.50;1.00
5264;DHT22;2654;47.958;13.614;2022-08-19T14:27:48;25.40;99.90
5264;DHT22;2654;47.958;13.614;2022-08-19T14:30:20;25.40;99.90
5264;DHT22;2654;47.958;13.614;2022-08-19T14:32:47;25.30;1.00
5264;DHT22;2654;47.958;13.614;2022-08-19T14:35:15;25.10;1.00
5264;DHT22;2654;47.958;13.614;2022-08-19T14:37:44;25.10;1.00
5264;DHT22;2654;47.958;13.614;2022-08-19T14:40:15;25.00;99.10
5264;DHT22;2654;47.958;13.614;2022-08-19T14:42:43;24.90;1.00
5264;DHT22;2654;47.958;13.614;2022-08-19T14:45:11;24.70;1.00
5264;DHT22;2654;47.958;13.614;2022-08-19T14:47:39;24.70;1.00
5264;DHT22;2654;47.958;13.614;2022-08-19T14:50:09;24.60;1.00
5264;DHT22;2654;47.958;13.614;2022-08-19T14:52:36;24.70;1.00
5264;DHT22;2654;47.958;13.614;2022-08-19T14:55:06;24.80;1.00
5264;DHT22;2654;47.958;13.614;2022-08-19T14:57:35;25.10;1.00
5264;DHT22;2654;47.958;13.614;2022-08-19T15:00:04;25.20;99.90
5264;DHT22;2654;47.958;13.614;2022-08-19T15:02:31;25.20;1.00
5264;DHT22;2654;47.958;13.614;2022-08-19T15:04:59;25.40;1.00
5264;DHT22;2654;47.958;13.614;2022-08-19T15:07:26;25.10;1.00
5264;DHT22;2654;47.958;13.614;2022-08-19T15:09:54;25.00;1.00
5264;DHT22;2654;47.958;13.614;2022-08-19T15:12:21;24.70;1.00
5264;DHT22;2654;47.958;13.614;2022-08-19T15:14:51;25.10;1.00
5264;DHT22;2654;47.958;13.614;2022-08-19T15:17:19;24.90;1.00
5264;DHT22;2654;47.958;13.614;2022-08-19T15:19:46;25.20;1.00
5264;DHT22;2654;47.958;13.614;2022-08-19T15:22:14;25.60;1.00
5264;DHT22;2654;47.958;13.614;2022-08-19T15:24:41;25.70;1.00
5264;DHT22;2654;47.958;13.614;2022-08-19T15:27:11;25.60;99.90
5264;DHT22;2654;47.958;13.614;2022-08-19T15:29:39;25.40;1.00
5264;DHT22;2654;47.958;13.614;2022-08-19T15:32:08;25.30;99.90
5264;DHT22;2654;47.958;13.614;2022-08-19T15:34:35;25.40;99.90
5264;DHT22;2654;47.958;13.614;2022-08-19T15:37:03;25.70;99.90
5264;DHT22;2654;47.958;13.614;2022-08-19T15:39:31;26.00;99.90
5264;DHT22;2654;47.958;13.614;2022-08-19T15:41:59;26.80;99.90
5264;DHT22;2654;47.958;13.614;2022-08-19T15:44:27;27.60;99.90
5264;DHT22;2654;47.958;13.614;2022-08-19T15:46:55;28.40;99.90
5264;DHT22;2654;47.958;13.614;2022-08-19T15:49:24;29.90;97.30
5264;DHT22;2654;47.958;13.614;2022-08-19T15:51:51;30.40;93.80
5264;DHT22;2654;47.958;13.614;2022-08-19T15:54:20;30.30;93.60
5264;DHT22;2654;47.958;13.614;2022-08-19T15:56:48;30.30;91.70
5264;DHT22;2654;47.958;13.614;2022-08-19T15:59:34;30.70;90.90
5264;DHT22;2654;47.958;13.614;2022-08-19T16:02:28;30.90;85.30